Time;durP1;ratioP1;P1;durP2;ratioP2;P2;SDS_P1;SDS_P2;PMS_P1;PMS_P2;Temp;Humidity;BMP_temperature;BMP_pressure;BME280_temperature;BME280_humidity;BME280_pressure;Samples;Min_cycle;Max_cycle;Signal;HPM_P1;HPM_P2
2021/05/18 00:00:44;;;;;;;1999.90;999.90;;;;;;;11.33;100.00;94972.56;5069385;28;20192;-63
2021/05/18 00:03:11;;;;;;;1999.90;999.90;;;;;;;11.30;100.00;94965.41;5070020;28;20227;-62
2021/05/18 00:05:40;;;;;;;1999.90;999.90;;;;;;;11.30;100.00;94952.41;5073035;28;20282;-61
2021/05/18 00:08:09;;;;;;;1999.90;999.90;;;;;;;11.20;100.00;94946.47;5072776;28;20239;-62
2021/05/18 00:13:25;;;;;;;1999.90;999.90;;;;;;;11.16;100.00;94958.53;5072638;28;20282;-60
2021/05/18 00:15:55;;;;;;;1999.90;999.90;;;;;;;11.18;100.00;94961.59;5072750;28;20282;-61
2021/05/18 00:18:22;;;;;;;1999.90;999.90;;;;;;;11.14;100.00;94972.94;5072698;28;20192;-61
2021/05/18 00:20:49;;;;;;;1999.90;999.90;;;;;;;11.12;100.00;94981.03;5072516;28;20208;-61
2021/05/18 00:23:16;;;;;;;1999.90;999.90;;;;;;;11.07;100.00;94994.19;5072569;28;20200;-60
2021/05/18 00:25:43;;;;;;;1999.90;999.90;;;;;;;11.05;100.00;94998.19;5072509;28;20192;-61
2021/05/18 00:28:11;;;;;;;1999.90;999.90;;;;;;;11.17;100.00;94995.72;5072654;28;20276;-62
2021/05/18 00:30:40;;;;;;;1999.90;999.90;;;;;;;11.25;100.00;95004.59;5072412;28;20232;-60
2021/05/18 00:33:13;;;;;;;1999.90;999.90;;;;;;;11.29;100.00;95008.09;5072554;28;20283;-60
2021/05/18 00:35:40;;;;;;;1999.90;999.90;;;;;;;11.23;100.00;95017.88;5072514;28;20192;-61
2021/05/18 00:38:08;;;;;;;1999.90;999.90;;;;;;;11.20;100.00;95013.31;5072637;28;20243;-62
2021/05/18 00:40:34;;;;;;;1999.90;999.90;;;;;;;11.26;100.00;95019.88;5072630;28;20267;-61
2021/05/18 00:43:01;;;;;;;1999.90;999.90;;;;;;;11.29;100.00;95010.69;5072581;28;20235;-61
2021/05/18 00:45:31;;;;;;;1999.90;999.90;;;;;;;11.33;100.00;95001.97;5072329;28;20292;-61
2021/05/18 00:47:59;;;;;;;1999.90;999.90;;;;;;;11.41;100.00;95005.59;5072584;28;20200;-61
2021/05/18 00:50:27;;;;;;;1999.90;999.90;;;;;;;11.32;100.00;95015.25;5071974;28;20223;-61
2021/05/18 00:52:54;;;;;;;1999.90;999.90;;;;;;;11.29;100.00;95011.47;5072201;28;20581;-61
2021/05/18 00:55:30;;;;;;;1999.90;999.90;;;;;;;11.25;100.00;95028.00;5072316;28;20279;-61
2021/05/18 01:00:43;;;;;;;1999.90;999.90;;;;;;;11.41;100.00;95023.81;5071999;28;20250;-61
2021/05/18 01:03:11;;;;;;;1999.90;999.90;;;;;;;11.45;100.00;95016.94;5072000;28;20195;-60
2021/05/18 01:08:24;;;;;;;1999.90;999.90;;;;;;;11.59;100.00;94997.47;5071961;28;20224;-60
2021/05/18 01:10:51;;;;;;;1999.90;999.90;;;;;;;11.57;100.00;95017.81;5071527;28;20228;-61
2021/05/18 01:13:18;;;;;;;1999.90;999.90;;;;;;;11.54;100.00;95012.47;5071440;28;20228;-61
2021/05/18 01:15:45;;;;;;;1999.90;999.90;;;;;;;11.49;100.00;94990.00;5070775;28;20581;-60
2021/05/18 01:18:12;;;;;;;1999.90;999.90;;;;;;;11.51;100.00;94992.25;5071678;28;20193;-60
2021/05/18 01:20:41;;;;;;;1999.90;999.90;;;;;;;11.48;100.00;95006.66;5071340;28;20209;-60
2021/05/18 01:23:09;;;;;;;1999.90;999.90;;;;;;;11.54;100.00;95020.28;5071291;28;20212;-61
2021/05/18 01:25:36;;;;;;;1999.90;999.90;;;;;;;11.61;100.00;95012.75;5071680;28;20702;-60
2021/05/18 01:28:03;;;;;;;1999.90;999.90;;;;;;;11.71;100.00;95020.22;5071477;28;20262;-61
2021/05/18 01:30:30;;;;;;;1999.90;999.90;;;;;;;11.72;100.00;95024.34;5071157;28;20236;-60
2021/05/18 01:32:56;;;;;;;1999.90;999.90;;;;;;;11.71;100.00;95027.25;5071490;28;20220;-61
2021/05/18 01:35:23;;;;;;;1999.90;999.90;;;;;;;11.68;100.00;95039.06;5071104;28;20197;-59
2021/05/18 01:37:51;;;;;;;1999.90;999.90;;;;;;;11.65;100.00;95035.25;5071192;28;20231;-61
2021/05/18 01:42:59;;;;;;;1999.90;999.90;;;;;;;11.60;100.00;95032.06;5070232;28;20196;-61
2021/05/18 01:45:31;;;;;;;1999.90;999.90;;;;;;;11.50;100.00;95038.34;5071128;28;20257;-61
2021/05/18 01:47:59;;;;;;;1999.90;999.90;;;;;;;11.44;100.00;95039.59;5070936;28;20192;-63
2021/05/18 01:50:28;;;;;;;1999.90;999.90;;;;;;;11.36;100.00;95036.97;5070812;28;20232;-61
2021/05/18 01:52:57;;;;;;;1999.90;999.90;;;;;;;11.30;100.00;95038.25;5070751;28;20680;-61
2021/05/18 01:55:27;;;;;;;1999.90;999.90;;;;;;;11.32;100.00;95038.69;5070940;28;20201;-60
2021/05/18 01:57:54;;;;;;;1999.90;999.90;;;;;;;11.23;100.00;95049.88;5070733;28;20188;-61
2021/05/18 02:00:23;;;;;;;1999.90;999.90;;;;;;;11.13;100.00;95054.59;5070763;28;20196;-60
2021/05/18 02:02:51;;;;;;;1999.90;999.90;;;;;;;11.11;100.00;95052.31;5070671;28;20196;-61
2021/05/18 02:05:20;;;;;;;1999.90;999.90;;;;;;;11.04;100.00;95057.22;5070830;28;20235;-61
2021/05/18 02:07:48;;;;;;;1999.90;999.90;;;;;;;11.02;100.00;95068.97;5070951;28;20299;-60
2021/05/18 02:10:18;;;;;;;1999.90;999.90;;;;;;;10.94;100.00;95072.34;5070496;28;20640;-61
2021/05/18 02:12:45;;;;;;;1999.90;999.90;;;;;;;10.83;100.00;95076.31;5070135;28;20326;-61
2021/05/18 02:15:24;;;;;;;1999.90;999.90;;;;;;;10.68;100.00;95091.28;5070854;28;20338;-61
2021/05/18 02:18:16;;;;;;;1999.90;999.90;;;;;;;10.79;100.00;95095.13;5070891;28;20208;-60
2021/05/18 02:20:46;;;;;;;1999.90;999.90;;;;;;;10.72;100.00;95092.19;5070471;28;20721;-60
2021/05/18 02:25:59;;;;;;;1999.90;999.90;;;;;;;10.70;100.00;95104.75;5070535;28;20716;-60
2021/05/18 02:28:28;;;;;;;1999.90;999.90;;;;;;;10.70;100.00;95103.97;5070458;28;20188;-61
2021/05/18 02:30:55;;;;;;;1999.90;999.90;;;;;;;10.81;100.00;95104.47;5070180;28;20228;-60
2021/05/18 02:33:25;;;;;;;1999.90;999.90;;;;;;;10.90;100.00;95102.63;5070281;28;20275;-61
2021/05/18 02:35:52;;;;;;;1999.90;999.90;;;;;;;11.00;100.00;95108.31;5070380;28;20198;-60
2021/05/18 02:38:19;;;;;;;1999.90;999.90;;;;;;;11.12;100.00;95123.28;5070079;28;20239;-61
2021/05/18 02:40:46;;;;;;;1999.90;999.90;;;;;;;11.17;100.00;95113.50;5070384;28;20284;-59
2021/05/18 02:43:15;;;;;;;1999.90;999.90;;;;;;;11.26;100.00;95125.75;5070400;28;20563;-61
2021/05/18 02:45:51;;;;;;;1999.90;999.90;;;;;;;11.25;100.00;95129.44;5070352;28;20204;-60
2021/05/18 02:51:02;;;;;;;1999.90;999.90;;;;;;;11.23;100.00;95129.72;5070048;28;20285;-61
2021/05/18 02:53:29;;;;;;;1999.90;999.90;;;;;;;11.20;100.00;95128.50;5070055;28;20199;-61
2021/05/18 02:55:59;;;;;;;1999.90;999.90;;;;;;;11.21;100.00;95127.41;5070299;28;20223;-59
2021/05/18 02:58:30;;;;;;;1999.90;999.90;;;;;;;11.16;100.00;95116.41;5069838;28;20649;-59
2021/05/18 03:01:01;;;;;;;1999.90;999.90;;;;;;;10.96;100.00;95117.75;5070232;28;20196;-61
2021/05/18 03:03:28;;;;;;;1999.90;999.90;;;;;;;10.98;100.00;95136.44;5069937;28;20207;-61
2021/05/18 03:05:55;;;;;;;1999.90;999.90;;;;;;;10.95;100.00;95134.44;5070077;28;20246;-60
2021/05/18 03:08:22;;;;;;;1999.90;999.90;;;;;;;10.91;100.00;95125.69;5070227;28;20188;-60
2021/05/18 03:10:48;;;;;;;1999.90;999.90;;;;;;;10.91;100.00;95132.75;5069693;28;20216;-61
2021/05/18 03:13:15;;;;;;;1999.90;999.90;;;;;;;10.88;100.00;95133.34;5069637;28;20224;-61
2021/05/18 03:15:43;;;;;;;1999.90;999.90;;;;;;;10.83;100.00;95128.28;5069649;28;20214;-62
2021/05/18 03:18:11;;;;;;;1999.90;999.90;;;;;;;10.80;100.00;95127.09;5070126;28;20656;-63
2021/05/18 03:20:37;;;;;;;1999.90;999.90;;;;;;;10.82;100.00;95124.16;5069924;28;20262;-61
2021/05/18 03:23:05;;;;;;;1999.90;999.90;;;;;;;10.85;100.00;95121.75;5069639;28;20188;-61
2021/05/18 03:25:32;;;;;;;1999.90;999.90;;;;;;;10.82;100.00;95122.34;5069560;28;20189;-63
2021/05/18 03:27:59;;;;;;;1999.90;999.90;;;;;;;10.84;100.00;95129.84;5069558;28;20196;-60
2021/05/18 03:30:43;;;;;;;1999.90;999.90;;;;;;;10.86;100.00;95131.03;5069556;28;20236;-61
2021/05/18 03:35:55;;;;;;;1999.90;999.90;;;;;;;11.02;100.00;95133.97;5069759;28;20203;-61
2021/05/18 03:38:26;;;;;;;1999.90;999.90;;;;;;;11.07;100.00;95150.22;5070503;28;20343;-60
2021/05/18 03:40:56;;;;;;;1999.90;999.90;;;;;;;11.06;100.00;95142.69;5073448;28;20772;-59
2021/05/18 03:43:40;;;;;;;1999.90;999.90;;;;;;;11.12;100.00;95151.91;5073389;28;20193;-61
2021/05/18 03:52:19;;;;;;;1999.90;999.90;;;;;;;11.31;100.00;95162.03;5073313;28;20206;-60
2021/05/18 03:54:35;;;;;;;1999.90;999.90;;;;;;;11.03;100.00;95170.09;5064223;28;20224;-59
2021/05/18 04:02:42;;;;;;;1999.90;999.90;;;;;;;11.09;100.00;95179.28;5073584;28;20207;-61
2021/05/18 04:05:17;;;;;;;1999.90;999.90;;;;;;;11.21;100.00;95171.63;5073398;28;20254;-61
2021/05/18 04:13:20;;;;;;;1999.90;999.90;;;;;;;11.45;100.00;95170.44;5069677;28;20246;-59
2021/05/18 04:18:37;;;;;;;1999.90;999.90;;;;;;;11.45;100.00;95176.41;5072725;28;20195;-61
2021/05/18 04:21:10;;;;;;;1999.90;999.90;;;;;;;11.53;100.00;95175.66;5072601;28;20601;-61
2021/05/18 04:23:44;;;;;;;1999.90;999.90;;;;;;;11.65;100.00;95182.84;5072668;28;20201;-60
2021/05/18 04:26:25;;;;;;;1999.90;999.90;;;;;;;11.89;100.00;95180.56;5072562;28;20511;-60
2021/05/18 04:48:28;;;;;;;1999.90;999.90;;;;;;;13.70;95.41;95219.63;5072298;28;20203;-61
2021/05/18 04:51:03;;;;;;;1999.90;999.90;;;;;;;13.29;96.41;95214.41;5072460;28;20227;-61
2021/05/18 04:53:43;;;;;;;1999.90;999.90;;;;;;;12.88;96.13;95221.03;5072017;28;20682;-60
2021/05/18 04:59:08;;;;;;;1999.90;999.90;;;;;;;12.91;100.00;95220.41;5072041;28;20234;-61
2021/05/18 05:01:46;;;;;;;1999.90;999.90;;;;;;;13.37;99.35;95229.25;5071947;28;20207;-61
2021/05/18 05:06:09;;;;;;;1999.90;999.90;;;;;;;13.68;99.16;95228.88;5071909;28;20188;-61
2021/05/18 05:07:08;;;;;;;1999.90;999.90;;;;;;;13.67;98.24;95228.13;5071993;28;20346;-60
2021/05/18 05:09:38;;;;;;;1999.90;999.90;;;;;;;13.72;100.00;95232.38;5071950;28;20204;-60
2021/05/18 05:14:59;;;;;;;1999.90;999.90;;;;;;;14.40;98.10;95232.88;5046508;28;20228;-60
2021/05/18 05:17:26;;;;;;;1999.90;999.90;;;;;;;14.34;93.75;95242.75;5071761;28;20193;-61
2021/05/18 05:19:52;;;;;;;1999.90;999.90;;;;;;;14.39;95.87;95242.59;5071504;28;20299;-61
2021/05/18 05:22:19;;;;;;;1999.90;999.90;;;;;;;14.42;93.00;95249.78;5071341;28;20193;-61
2021/05/18 05:24:47;;;;;;;1999.90;999.90;;;;;;;14.33;92.71;95256.91;5071617;28;20204;-59
2021/05/18 05:27:14;;;;;;;1999.90;999.90;;;;;;;14.30;92.35;95259.41;5071355;28;20663;-59
2021/05/18 05:29:41;;;;;;;1999.90;999.90;;;;;;;14.54;89.77;95262.91;5071545;28;20193;-60
2021/05/18 05:32:07;;;;;;;1999.90;999.90;;;;;;;14.64;87.67;95269.56;5070190;28;20461;-59
2021/05/18 05:34:34;;;;;;;1999.90;999.90;;;;;;;14.84;87.17;95270.59;5071388;28;20204;-61
2021/05/18 05:37:01;;;;;;;1999.90;999.90;;;;;;;14.93;86.06;95271.25;5071365;28;20271;-60
2021/05/18 05:39:28;;;;;;;1999.90;999.90;;;;;;;15.24;87.18;95263.59;5071259;28;20208;-59
2021/05/18 05:41:56;;;;;;;1999.90;999.90;;;;;;;15.18;81.78;95275.41;5071427;28;20207;-60
2021/05/18 05:44:26;;;;;;;1999.90;999.90;;;;;;;15.08;82.14;95273.97;5070979;28;20243;-62
2021/05/18 05:46:53;;;;;;;1999.90;999.90;;;;;;;15.09;81.53;95278.09;5071377;28;20315;-60
2021/05/18 05:49:19;;;;;;;1999.90;999.90;;;;;;;15.09;81.87;95272.13;5070844;28;20204;-61
2021/05/18 05:51:46;;;;;;;1999.90;999.90;;;;;;;15.10;78.70;95273.63;5070679;28;20227;-59
2021/05/18 05:54:13;;;;;;;1999.90;999.90;;;;;;;15.09;76.91;95277.38;5070999;28;20201;-62
2021/05/18 05:56:40;;;;;;;1999.90;999.90;;;;;;;15.04;77.31;95274.97;5071162;28;20338;-60
2021/05/18 05:59:08;;;;;;;1999.90;999.90;;;;;;;14.97;74.30;95272.88;5070503;28;20585;-60
2021/05/18 06:01:35;;;;;;;1999.90;999.90;;;;;;;14.60;76.10;95282.50;5070248;28;20222;-60
2021/05/18 06:04:02;;;;;;;1999.90;999.90;;;;;;;14.53;77.06;95284.91;5071056;28;20219;-62
2021/05/18 06:06:29;;;;;;;1999.90;999.90;;;;;;;14.52;77.16;95277.38;5071117;28;20200;-60
2021/05/18 06:08:56;;;;;;;1999.90;999.90;;;;;;;14.44;74.99;95283.44;5071048;28;20195;-60
2021/05/18 06:11:28;;;;;;;1999.90;999.90;;;;;;;14.54;74.49;95286.44;5070620;28;20281;-60
2021/05/18 06:14:08;;;;;;;1999.90;999.90;;;;;;;14.52;77.01;95288.59;5070507;28;20279;-60
2021/05/18 06:17:01;;;;;;;1999.90;999.90;;;;;;;14.56;76.61;95297.31;5070875;28;20233;-61
2021/05/18 06:47:29;;;;;;;1999.90;999.90;;;;;;;15.72;76.73;95290.88;5070165;28;20577;-60
2021/05/18 06:50:00;;;;;;;1999.90;999.90;;;;;;;16.14;74.58;95304.44;5070175;28;20208;-59
2021/05/18 06:52:27;;;;;;;1999.90;999.90;;;;;;;15.98;73.23;95298.38;5070009;28;20314;-60
2021/05/18 06:54:54;;;;;;;1999.90;999.90;;;;;;;15.65;73.92;95288.81;5070446;28;20220;-58
2021/05/18 06:57:20;;;;;;;1999.90;999.90;;;;;;;15.89;74.01;95286.13;5070310;28;20196;-60
2021/05/18 07:02:32;;;;;;;1999.90;999.90;;;;;;;16.17;71.79;95294.03;5070405;28;20293;-59
2021/05/18 07:04:59;;;;;;;1999.90;999.90;;;;;;;16.53;76.05;95287.13;5069917;28;21361;-61
2021/05/18 07:07:29;;;;;;;1999.90;999.90;;;;;;;16.41;71.26;95293.19;5070204;28;20257;-61
2021/05/18 07:09:56;;;;;;;1999.90;999.90;;;;;;;16.77;73.12;95298.28;5069913;28;20189;-60
2021/05/18 07:12:22;;;;;;;1999.90;999.90;;;;;;;16.31;70.19;95307.53;5069801;28;20311;-59
2021/05/18 07:14:49;;;;;;;1999.90;999.90;;;;;;;16.23;70.17;95318.19;5073041;28;20228;-60
2021/05/18 07:17:16;;;;;;;1999.90;999.90;;;;;;;16.27;70.83;95314.56;5073905;28;20200;-60
2021/05/18 07:19:43;;;;;;;1999.90;999.90;;;;;;;16.06;70.95;95319.19;5073731;28;20218;-60
2021/05/18 07:22:11;;;;;;;1999.90;999.90;;;;;;;15.94;68.10;95313.97;5074147;28;20195;-60
2021/05/18 07:24:38;;;;;;;1999.90;999.90;;;;;;;15.94;69.49;95322.59;5074049;28;20196;-60
2021/05/18 07:27:05;;;;;;;1999.90;999.90;;;;;;;15.99;69.77;95323.50;5073803;28;20204;-60
2021/05/18 07:29:32;;;;;;;1999.90;999.90;;;;;;;16.07;71.28;95317.34;5073904;28;20188;-59
2021/05/18 07:31:59;;;;;;;1999.90;999.90;;;;;;;15.99;70.07;95326.84;5073298;28;20238;-59
2021/05/18 07:34:26;;;;;;;1999.90;999.90;;;;;;;16.14;69.01;95323.53;5073593;28;20237;-59
2021/05/18 07:36:52;;;;;;;1999.90;999.90;;;;;;;16.33;68.02;95330.81;5073635;28;20261;-61
2021/05/18 07:39:20;;;;;;;1999.90;999.90;;;;;;;16.34;69.16;95327.06;5073561;28;20246;-60
2021/05/18 07:41:47;;;;;;;1999.90;999.90;;;;;;;16.17;68.00;95322.88;5073651;28;20193;-60
2021/05/18 07:44:14;;;;;;;1999.90;999.90;;;;;;;16.08;68.12;95318.88;5073334;28;20199;-59
2021/05/18 07:46:42;;;;;;;1999.90;999.90;;;;;;;16.23;68.35;95321.56;5073226;28;20683;-59
2021/05/18 07:49:15;;;;;;;1999.90;999.90;;;;;;;16.01;67.95;95327.28;5073549;28;20734;-59
2021/05/18 08:00:04;;;;;;;1999.90;999.90;;;;;;;16.30;67.14;95334.84;5073378;28;20590;-59
2021/05/18 08:05:18;;;;;;;1999.90;999.90;;;;;;;16.45;64.11;95332.63;5073151;28;20216;-61
2021/05/18 08:07:46;;;;;;;1999.90;999.90;;;;;;;16.26;62.92;95328.00;5073545;28;20625;-59
2021/05/18 08:10:17;;;;;;;1999.90;999.90;;;;;;;16.34;67.62;95325.22;5072964;28;20196;-59
2021/05/18 08:12:44;;;;;;;1999.90;999.90;;;;;;;16.39;63.28;95315.59;5072735;28;20598;-59
2021/05/18 08:15:37;;;;;;;1999.90;999.90;;;;;;;16.46;65.47;95321.03;5071590;28;20659;-60
2021/05/18 08:18:13;;;;;;;1999.90;999.90;;;;;;;16.83;67.27;95316.41;5071723;28;20196;-59
2021/05/18 10:35:51;;;;;;;1999.90;999.90;;;;;;;18.68;49.34;95327.28;5070500;28;20719;-60
2021/05/18 10:38:20;;;;;;;1999.90;999.90;;;;;;;18.99;52.13;95319.16;5035594;28;20193;-61
2021/05/18 10:40:49;;;;;;;1999.90;999.90;;;;;;;19.10;50.78;95329.88;5070245;28;20196;-60
2021/05/18 10:43:29;;;;;;;1999.90;999.90;;;;;;;18.98;46.70;95328.16;5070327;28;20289;-61
2021/05/18 10:46:16;;;;;;;1999.90;999.90;;;;;;;18.95;49.20;95333.38;5070354;28;20660;-61
2021/05/18 10:49:10;;;;;;;1999.90;999.90;;;;;;;19.29;49.72;95335.09;5069944;28;20192;-60
2021/05/18 10:51:52;;;;;;;1999.90;999.90;;;;;;;19.11;47.93;95331.41;5070185;28;20225;-60
2021/05/18 10:54:27;;;;;;;1999.90;999.90;;;;;;;18.98;47.49;95337.97;5070289;28;20192;-61
2021/05/18 10:57:12;;;;;;;1999.90;999.90;;;;;;;18.59;46.52;95337.25;5070204;28;20288;-60
2021/05/18 10:59:41;;;;;;;1999.90;999.90;;;;;;;18.91;46.75;95333.34;5070005;28;20615;-61
2021/05/18 11:02:11;;;;;;;1999.90;999.90;;;;;;;19.11;44.21;95331.41;5069891;28;20196;-61
2021/05/18 11:04:40;;;;;;;1999.90;999.90;;;;;;;19.01;44.17;95338.03;5069814;28;20193;-60
2021/05/18 11:07:11;;;;;;;1999.90;999.90;;;;;;;19.43;47.05;95332.66;5069918;28;20192;-60
2021/05/18 11:09:39;;;;;;;1999.90;999.90;;;;;;;19.90;46.97;95323.59;5070221;28;20254;-60
2021/05/18 11:12:12;;;;;;;1999.90;999.90;;;;;;;19.61;45.72;95317.94;5069777;28;20232;-60
2021/05/18 11:14:42;;;;;;;1999.90;999.90;;;;;;;19.73;46.82;95327.50;5070386;28;20331;-59
2021/05/18 11:17:26;;;;;;;1999.90;999.90;;;;;;;19.65;47.10;95324.00;5069789;28;20287;-60
2021/05/18 11:20:02;;;;;;;1999.90;999.90;;;;;;;19.78;49.11;95319.28;5069704;28;20303;-60
2021/05/18 11:25:29;;;;;;;1999.90;999.90;;;;;;;20.14;45.67;95328.44;5062564;28;20205;-60
2021/05/18 11:28:16;;;;;;;1999.90;999.90;;;;;;;20.10;45.34;95325.75;5069673;28;20573;-59
2021/05/18 11:30:45;;;;;;;1999.90;999.90;;;;;;;20.11;45.41;95319.38;5069612;28;20251;-59
2021/05/18 11:33:12;;;;;;;1999.90;999.90;;;;;;;20.84;48.47;95306.63;5069650;28;20287;-59
2021/05/18 11:35:39;;;;;;;1999.90;999.90;;;;;;;20.14;44.99;95312.59;5069565;28;20198;-60
2021/05/18 11:38:12;;;;;;;1999.90;999.90;;;;;;;19.80;47.56;95311.03;5069678;28;20245;-61
2021/05/18 11:40:44;;;;;;;1999.90;999.90;;;;;;;19.98;44.66;95299.59;5069543;28;20236;-59
2021/05/18 11:43:23;;;;;;;1999.90;999.90;;;;;;;20.04;47.29;95308.72;5069975;28;20238;-61
2021/05/18 11:45:52;;;;;;;1999.90;999.90;;;;;;;20.41;45.15;95310.69;5069533;28;20195;-59
2021/05/18 11:48:21;;;;;;;1999.90;999.90;;;;;;;20.33;44.84;95304.56;5069579;28;20223;-61
2021/05/18 11:51:02;;;;;;;1999.90;999.90;;;;;;;19.90;43.88;95315.69;5069458;28;20229;-61
2021/05/18 11:53:34;;;;;;;1999.90;999.90;;;;;;;19.56;45.61;95302.41;5069347;28;20201;-60
2021/05/18 11:56:14;;;;;;;1999.90;999.90;;;;;;;20.06;46.25;95308.38;5069691;28;20265;-60
2021/05/18 11:58:42;;;;;;;1999.90;999.90;;;;;;;19.24;46.75;95319.56;5069622;28;20341;-59
2021/05/18 12:01:09;;;;;;;1999.90;999.90;;;;;;;19.44;48.68;95305.25;5073164;28;20317;-59
2021/05/18 12:03:36;;;;;;;1999.90;999.90;;;;;;;19.94;47.94;95308.56;5073376;28;20200;-60
2021/05/18 12:06:04;;;;;;;1999.90;999.90;;;;;;;20.21;46.21;95312.69;5073257;28;20204;-59
2021/05/18 12:08:33;;;;;;;1999.90;999.90;;;;;;;20.43;45.94;95309.22;5072687;28;20621;-59
2021/05/18 12:11:17;;;;;;;1999.90;999.90;;;;;;;19.59;44.31;95309.59;5072641;28;20242;-60
2021/05/18 12:13:47;;;;;;;1999.90;999.90;;;;;;;19.86;47.45;95310.38;5072979;28;20228;-60
2021/05/18 12:16:15;;;;;;;1999.90;999.90;;;;;;;20.08;46.10;95308.75;5072860;28;20203;-59
2021/05/18 12:18:43;;;;;;;1999.90;999.90;;;;;;;20.37;44.84;95300.13;5072871;28;20197;-60
2021/05/18 12:21:15;;;;;;;1999.90;999.90;;;;;;;20.53;45.98;95300.66;5072709;28;20216;-60
2021/05/18 12:23:42;;;;;;;1999.90;999.90;;;;;;;20.74;44.28;95302.00;5073120;28;20322;-60
2021/05/18 12:26:15;;;;;;;1999.90;999.90;;;;;;;21.04;43.88;95300.00;5072465;28;20224;-59
2021/05/18 12:28:59;;;;;;;1999.90;999.90;;;;;;;20.82;39.78;95301.69;5072577;28;20675;-60
2021/05/18 12:31:31;;;;;;;1999.90;999.90;;;;;;;20.92;41.97;95308.94;5072664;28;20228;-60
2021/05/18 12:33:58;;;;;;;1999.90;999.90;;;;;;;20.64;39.07;95303.41;5072415;28;20196;-59
2021/05/18 12:36:27;;;;;;;1999.90;999.90;;;;;;;20.39;41.95;95305.78;5072587;28;20196;-59
2021/05/18 12:39:11;;;;;;;1999.90;999.90;;;;;;;20.19;39.54;95296.47;5072771;28;20193;-59
2021/05/18 12:41:53;;;;;;;1999.90;999.90;;;;;;;20.03;42.39;95301.91;5072317;28;20203;-59
2021/05/18 12:44:21;;;;;;;1999.90;999.90;;;;;;;20.09;42.19;95292.56;5072270;28;20283;-60
2021/05/18 12:46:59;;;;;;;1999.90;999.90;;;;;;;20.18;42.29;95298.34;5072255;28;20555;-60
2021/05/18 12:49:29;;;;;;;1999.90;999.90;;;;;;;20.27;42.63;95300.72;5072488;28;20587;-59
2021/05/18 12:52:04;;;;;;;1999.90;999.90;;;;;;;20.43;42.61;95293.38;5072265;28;20320;-60
2021/05/18 12:54:54;;;;;;;1999.90;999.90;;;;;;;20.89;42.16;95295.72;5072209;28;20239;-59
2021/05/18 12:57:23;;;;;;;1999.90;999.90;;;;;;;20.52;39.69;95295.75;5068277;28;20200;-59
2021/05/18 13:00:07;;;;;;;1999.90;999.90;;;;;;;20.65;40.42;95294.38;5072249;28;20684;-59
2021/05/18 13:02:40;;;;;;;1999.90;999.90;;;;;;;20.90;40.05;95297.25;5071997;28;20196;-59
2021/05/18 13:05:21;;;;;;;1999.90;999.90;;;;;;;21.05;39.99;95301.53;5071993;28;20220;-60
2021/05/18 13:08:09;;;;;;;1999.90;999.90;;;;;;;20.71;39.24;95289.53;5072302;28;20679;-60
2021/05/18 13:10:44;;;;;;;1999.90;999.90;;;;;;;20.53;39.81;95290.09;5071000;28;20609;-59
2021/05/18 13:13:11;;;;;;;1999.90;999.90;;;;;;;20.90;40.78;95286.69;5071722;28;20319;-59
2021/05/18 13:15:39;;;;;;;1999.90;999.90;;;;;;;20.63;40.17;95297.34;5071811;28;20219;-59
2021/05/18 13:18:09;;;;;;;1999.90;999.90;;;;;;;20.74;39.38;95286.91;5071945;28;20207;-58
2021/05/18 13:20:40;;;;;;;1999.90;999.90;;;;;;;20.72;39.20;95288.41;5071659;28;20216;-60
2021/05/18 13:23:09;;;;;;;1999.90;999.90;;;;;;;20.67;41.19;95292.13;5071609;28;20207;-60
2021/05/18 13:28:21;;;;;;;1999.90;999.90;;;;;;;20.57;42.53;95287.50;5072374;28;20206;-60
2021/05/18 13:30:49;;;;;;;1999.90;999.90;;;;;;;20.81;39.80;95297.56;5072001;28;20188;-60
2021/05/18 13:33:16;;;;;;;1999.90;999.90;;;;;;;20.71;38.90;95292.16;5071503;28;20197;-60
2021/05/18 13:35:43;;;;;;;1999.90;999.90;;;;;;;20.60;39.91;95292.06;5071660;28;20312;-60
2021/05/18 13:38:10;;;;;;;1999.90;999.90;;;;;;;20.47;39.49;95291.53;5071399;28;20318;-60
2021/05/18 13:40:37;;;;;;;1999.90;999.90;;;;;;;20.50;40.76;95288.19;5071032;28;20192;-60
2021/05/18 13:43:05;;;;;;;1999.90;999.90;;;;;;;20.75;39.19;95285.03;5071544;28;20291;-59
2021/05/18 13:45:32;;;;;;;1999.90;999.90;;;;;;;20.84;38.67;95285.50;5071424;28;20291;-59
2021/05/18 13:48:00;;;;;;;1999.90;999.90;;;;;;;20.92;39.27;95281.81;5071127;28;20625;-60
2021/05/18 13:50:28;;;;;;;1999.90;999.90;;;;;;;21.12;40.15;95292.91;5070905;28;20731;-60
2021/05/18 13:52:55;;;;;;;1999.90;999.90;;;;;;;21.06;37.24;95295.13;5071122;28;20315;-60
2021/05/18 13:55:22;;;;;;;1999.90;999.90;;;;;;;20.80;38.17;95289.97;5070834;28;20242;-58
2021/05/18 13:57:49;;;;;;;1999.90;999.90;;;;;;;20.73;39.18;95288.03;5071138;28;20287;-60
2021/05/18 14:00:18;;;;;;;1999.90;999.90;;;;;;;20.79;38.72;95289.22;5071301;28;20204;-58
2021/05/18 14:02:46;;;;;;;1999.90;999.90;;;;;;;20.70;38.74;95301.19;5070710;28;20197;-58
2021/05/18 14:05:17;;;;;;;1999.90;999.90;;;;;;;20.66;39.88;95292.47;5070934;28;20196;-60
2021/05/18 14:11:05;;;;;;;1999.90;999.90;;;;;;;20.80;40.43;95296.03;5068833;28;20201;-60
2021/05/18 14:13:34;;;;;;;1999.90;999.90;;;;;;;20.43;38.78;95290.72;5070250;28;20576;-60
2021/05/18 14:16:01;;;;;;;1999.90;999.90;;;;;;;20.36;40.01;95292.53;5070489;28;20601;-60
2021/05/18 14:18:29;;;;;;;1999.90;999.90;;;;;;;20.55;38.88;95305.56;5070756;28;20681;-60
2021/05/18 14:20:57;;;;;;;1999.90;999.90;;;;;;;20.61;39.53;95298.84;5070356;28;20599;-59
2021/05/18 14:23:26;;;;;;;1999.90;999.90;;;;;;;20.77;37.77;95296.72;5070023;28;20283;-60
2021/05/18 14:25:53;;;;;;;1999.90;999.90;;;;;;;20.73;37.96;95289.91;5071078;28;20329;-60
2021/05/18 14:28:21;;;;;;;1999.90;999.90;;;;;;;20.82;39.82;95300.97;5070320;28;20334;-59
2021/05/18 14:30:48;;;;;;;1999.90;999.90;;;;;;;20.54;39.16;95299.53;5070088;28;20196;-59
2021/05/18 14:33:15;;;;;;;1999.90;999.90;;;;;;;20.56;39.10;95302.59;5070594;28;20660;-60
2021/05/18 14:35:42;;;;;;;1999.90;999.90;;;;;;;20.48;39.67;95300.22;5070097;28;20193;-60
2021/05/18 14:38:14;;;;;;;1999.90;999.90;;;;;;;20.03;40.05;95301.91;5070373;28;20235;-59
2021/05/18 14:40:56;;;;;;;1999.90;999.90;;;;;;;19.98;40.66;95296.19;5070593;28;20711;-59
2021/05/18 14:46:16;;;;;;;1999.90;999.90;;;;;;;20.57;38.25;95292.78;5066425;28;20204;-59
2021/05/18 14:54:45;;;;;;;1999.90;999.90;;;;;;;20.91;39.32;95293.50;5065931;28;20203;-58
2021/05/18 14:57:12;;;;;;;1999.90;999.90;;;;;;;20.77;37.27;95293.34;5070133;28;20192;-59
2021/05/18 14:59:39;;;;;;;1999.90;999.90;;;;;;;20.75;38.51;95285.78;5069929;28;20702;-59
2021/05/18 15:02:06;;;;;;;1999.90;999.90;;;;;;;20.41;38.06;95290.34;5069943;28;20193;-59
2021/05/18 15:04:34;;;;;;;1999.90;999.90;;;;;;;20.57;38.67;95290.16;5070265;28;20296;-59
2021/05/18 15:07:06;;;;;;;1999.90;999.90;;;;;;;20.71;38.63;95278.97;5069944;28;20232;-59
2021/05/18 15:09:34;;;;;;;1999.90;999.90;;;;;;;20.80;37.25;95279.41;5070150;28;20261;-59
2021/05/18 15:12:01;;;;;;;1999.90;999.90;;;;;;;20.92;38.01;95282.53;5069893;28;20228;-59
2021/05/18 15:14:28;;;;;;;1999.90;999.90;;;;;;;20.95;36.21;95289.75;5069723;28;20225;-59
2021/05/18 15:16:55;;;;;;;1999.90;999.90;;;;;;;20.81;37.03;95287.00;5070022;28;20284;-59
2021/05/18 15:19:23;;;;;;;1999.90;999.90;;;;;;;20.74;36.53;95286.16;5070224;28;20204;-60
2021/05/18 15:21:51;;;;;;;1999.90;999.90;;;;;;;20.54;38.03;95283.69;5069824;28;20200;-58
2021/05/18 15:24:18;;;;;;;1999.90;999.90;;;;;;;20.68;36.83;95287.59;5069765;28;20206;-60